createdAt,value
2023-11-01T00:01:37.826Z,2.08
2023-11-01T00:04:04.265Z,2.53
2023-11-01T00:06:30.555Z,2.30
2023-11-01T00:08:57.324Z,2.28
2023-11-01T00:11:23.978Z,2.28
2023-11-01T00:13:50.358Z,2.15
2023-11-01T00:16:16.675Z,2.03
2023-11-01T00:18:42.933Z,2.38
2023-11-01T00:21:09.284Z,2.17
2023-11-01T00:23:35.673Z,2.20
2023-11-01T00:26:02.491Z,2.47
2023-11-01T00:28:29.152Z,2.42
2023-11-01T00:30:55.395Z,2.80
2023-11-01T00:33:22.940Z,2.33
2023-11-01T00:38:19.504Z,2.10
2023-11-01T00:40:45.815Z,2.05
2023-11-01T00:43:12.080Z,2.00
2023-11-01T00:45:38.294Z,1.98
2023-11-01T00:48:04.761Z,1.55
2023-11-01T00:50:31.684Z,2.20
2023-11-01T00:52:58.744Z,1.90
2023-11-01T00:55:24.987Z,2.15
2023-11-01T00:57:51.274Z,1.90
2023-11-01T01:00:17.724Z,1.92
2023-11-01T01:02:44.258Z,2.03
2023-11-01T01:05:10.685Z,2.00
2023-11-01T01:07:36.976Z,2.10
2023-11-01T01:10:03.795Z,2.15
2023-11-01T01:12:30.065Z,2.20
2023-11-01T01:14:58.640Z,1.83
2023-11-01T01:17:24.913Z,2.17
2023-11-01T01:19:52.127Z,2.00
2023-11-01T01:22:18.445Z,2.28
2023-11-01T01:24:44.791Z,2.30
2023-11-01T01:27:11.077Z,2.00
2023-11-01T01:29:37.422Z,2.25
2023-11-01T01:32:03.941Z,2.28
2023-11-01T01:34:30.178Z,1.98
2023-11-01T01:36:56.473Z,2.00
2023-11-01T01:39:22.747Z,2.10
2023-11-01T01:41:48.984Z,2.17
2023-11-01T01:44:15.505Z,2.20
2023-11-01T01:46:41.909Z,2.20
2023-11-01T01:49:08.607Z,2.70
2023-11-01T01:51:38.260Z,2.05
2023-11-01T01:54:04.708Z,2.20
2023-11-01T01:56:31.456Z,2.28
2023-11-01T01:58:57.898Z,2.00
2023-11-01T02:01:35.600Z,2.17
2023-11-01T02:04:09.268Z,1.90
2023-11-01T02:06:35.589Z,1.98
2023-11-01T02:09:01.845Z,2.33
2023-11-01T02:11:30.405Z,2.08
2023-11-01T02:13:56.751Z,2.08
2023-11-01T02:16:24.043Z,2.20
2023-11-01T02:18:50.352Z,2.30
2023-11-01T02:21:16.593Z,2.20
2023-11-01T02:23:43.877Z,2.25
2023-11-01T02:26:10.426Z,1.75
2023-11-01T02:28:36.719Z,2.20
2023-11-01T02:31:04.543Z,2.42
2023-11-01T02:33:30.781Z,2.00
2023-11-01T02:35:57.144Z,2.20
2023-11-01T02:38:23.460Z,2.25
2023-11-01T02:40:49.764Z,2.42
2023-11-01T02:43:17.135Z,2.30
2023-11-01T02:45:44.249Z,2.20
2023-11-01T02:48:10.537Z,2.28
2023-11-01T02:50:36.876Z,2.25
2023-11-01T02:53:03.216Z,1.80
2023-11-01T02:55:29.612Z,1.95
2023-11-01T02:57:56.066Z,2.17
2023-11-01T03:00:22.402Z,2.33
2023-11-01T03:02:49.532Z,2.15
2023-11-01T03:05:16.550Z,2.42
2023-11-01T03:07:43.180Z,2.20
2023-11-01T03:10:10.727Z,2.30
2023-11-01T03:12:40.616Z,2.25
2023-11-01T03:15:08.293Z,2.50
2023-11-01T03:20:04.167Z,2.10
2023-11-01T03:22:30.437Z,2.70
2023-11-01T03:24:56.692Z,2.40
2023-11-01T03:27:23.010Z,2.65
2023-11-01T03:29:49.395Z,2.60
2023-11-01T03:32:15.775Z,2.38
2023-11-01T03:34:42.035Z,2.20
2023-11-01T03:37:08.317Z,2.38
2023-11-01T03:39:34.606Z,2.45
2023-11-01T03:42:05.587Z,2.10
2023-11-01T03:44:33.286Z,2.63
2023-11-01T03:49:26.618Z,2.67
2023-11-01T03:51:52.900Z,2.65
2023-11-01T03:54:19.203Z,3.17
2023-11-01T03:56:45.528Z,2.83
2023-11-01T03:59:11.797Z,2.50
2023-11-01T04:01:38.076Z,3.22
2023-11-01T04:04:04.453Z,3.00
2023-11-01T04:06:30.758Z,2.97
2023-11-01T04:08:57.015Z,2.05
2023-11-01T04:11:23.634Z,3.17
2023-11-01T04:13:50.912Z,3.17
2023-11-01T04:16:17.219Z,3.53
2023-11-01T04:18:43.850Z,2.90
2023-11-01T04:21:10.156Z,3.50
2023-11-01T04:23:36.511Z,2.78
2023-11-01T04:26:02.779Z,3.42
2023-11-01T04:28:29.008Z,2.38
2023-11-01T04:30:55.950Z,2.70
2023-11-01T04:33:22.248Z,3.10
2023-11-01T04:35:48.533Z,3.03
2023-11-01T04:38:15.135Z,3.17
2023-11-01T04:40:41.411Z,3.00
2023-11-01T04:43:07.633Z,2.85
2023-11-01T04:45:33.945Z,3.03
2023-11-01T04:48:01.200Z,2.85
2023-11-01T04:50:27.969Z,1.92
2023-11-01T04:52:54.306Z,2.75
2023-11-01T04:55:20.613Z,3.03
2023-11-01T04:57:46.867Z,2.45
2023-11-01T05:00:17.012Z,2.65
2023-11-01T05:02:45.275Z,2.85
2023-11-01T05:05:11.581Z,2.70
2023-11-01T05:07:38.754Z,3.40
2023-11-01T05:10:05.394Z,2.88
2023-11-01T05:12:31.934Z,2.70
2023-11-01T05:14:58.650Z,3.05
2023-11-01T05:17:24.929Z,3.00
2023-11-01T05:19:51.212Z,2.78
2023-11-01T05:22:17.791Z,3.40
2023-11-01T05:24:52.812Z,3.58
2023-11-01T05:27:20.957Z,2.97
2023-11-01T05:29:47.662Z,3.35
2023-11-01T05:32:13.979Z,2.90
2023-11-01T05:34:40.405Z,3.83
2023-11-01T05:37:10.534Z,3.10
2023-11-01T05:39:36.856Z,2.75
2023-11-01T05:42:03.278Z,3.10
2023-11-01T05:44:30.450Z,2.90
2023-11-01T05:46:58.986Z,3.03
2023-11-01T05:49:25.421Z,3.03
2023-11-01T05:51:51.671Z,2.90
2023-11-01T05:54:17.939Z,2.88
2023-11-01T05:56:44.242Z,3.60
2023-11-01T05:59:13.520Z,3.15
2023-11-01T06:01:39.891Z,3.13
2023-11-01T06:04:06.303Z,3.08
2023-11-01T06:06:32.627Z,3.08
2023-11-01T06:08:58.855Z,3.00
2023-11-01T06:11:25.707Z,2.63
2023-11-01T06:13:52.095Z,3.00
2023-11-01T06:16:18.454Z,2.75
2023-11-01T06:18:47.480Z,2.58
2023-11-01T06:21:15.482Z,2.92
2023-11-01T06:23:41.846Z,2.55
2023-11-01T06:26:08.177Z,2.60
2023-11-01T06:28:35.426Z,2.65
2023-11-01T06:31:01.779Z,2.20
2023-11-01T06:33:28.129Z,2.33
2023-11-01T06:35:54.556Z,2.53
2023-11-01T06:38:20.880Z,2.15
2023-11-01T06:40:47.125Z,2.50
2023-11-01T06:43:13.785Z,2.60
2023-11-01T06:45:41.357Z,2.80
2023-11-01T06:48:07.738Z,2.90
2023-11-01T06:50:34.294Z,2.88
2023-11-01T06:53:00.568Z,2.70
2023-11-01T06:55:26.904Z,3.03
2023-11-01T06:57:53.352Z,2.88
2023-11-01T07:00:20.004Z,2.90
2023-11-01T07:02:46.348Z,2.90
2023-11-01T07:05:12.604Z,2.10
2023-11-01T07:07:38.809Z,2.20
2023-11-01T07:10:06.811Z,2.50
2023-11-01T07:12:33.141Z,2.22
2023-11-01T07:14:59.371Z,2.22
2023-11-01T07:17:28.774Z,2.35
2023-11-01T07:19:55.656Z,2.28
2023-11-01T07:22:22.737Z,2.13
2023-11-01T07:24:49.426Z,2.78
2023-11-01T07:27:15.808Z,3.05
2023-11-01T07:29:42.148Z,2.13
2023-11-01T07:32:10.121Z,2.28
2023-11-01T07:34:36.442Z,2.00
2023-11-01T07:37:04.096Z,2.33
2023-11-01T07:39:30.565Z,1.98
2023-11-01T07:41:56.856Z,1.63
2023-11-01T07:44:23.307Z,2.10
2023-11-01T07:46:49.796Z,1.80
2023-11-01T07:49:16.047Z,2.00
2023-11-01T07:51:43.162Z,1.70
2023-11-01T07:54:10.661Z,1.48
2023-11-01T07:56:37.163Z,2.63
2023-11-01T07:59:03.683Z,2.15
2023-11-01T08:01:29.915Z,2.22
2023-11-01T08:03:56.473Z,2.15
2023-11-01T08:06:22.885Z,1.92
2023-11-01T08:08:49.197Z,1.60
2023-11-01T08:11:15.516Z,1.95
2023-11-01T08:13:41.826Z,2.05
2023-11-01T08:16:08.257Z,2.00
2023-11-01T08:18:34.878Z,2.22
2023-11-01T08:21:01.203Z,2.50
2023-11-01T08:23:27.467Z,1.80
2023-11-01T08:25:53.696Z,1.90
2023-11-01T08:28:20.126Z,2.20
2023-11-01T08:30:46.437Z,2.30
2023-11-01T08:33:12.868Z,1.92
2023-11-01T08:35:39.535Z,1.92
2023-11-01T08:38:09.601Z,2.03
2023-11-01T08:40:36.195Z,1.33
2023-11-01T08:43:02.500Z,2.05
2023-11-01T08:45:28.795Z,1.60
2023-11-01T08:47:55.162Z,1.58
2023-11-01T08:50:22.208Z,2.03
2023-11-01T08:52:48.494Z,2.20
2023-11-01T08:55:15.279Z,1.42
2023-11-01T08:57:42.093Z,1.88
2023-11-01T09:00:09.518Z,1.40
2023-11-01T09:02:36.161Z,1.98
2023-11-01T09:05:02.518Z,1.67
2023-11-01T09:07:28.833Z,1.77
2023-11-01T09:09:56.533Z,1.35
2023-11-01T09:12:24.083Z,1.42
2023-11-01T09:14:50.528Z,1.50
2023-11-01T09:17:18.112Z,1.75
2023-11-01T09:22:10.717Z,1.20
2023-11-01T09:24:37.036Z,1.02
2023-11-01T09:27:03.737Z,1.90
2023-11-01T09:29:30.000Z,1.40
2023-11-01T09:31:56.316Z,1.35
2023-11-01T09:34:24.324Z,1.35
2023-11-01T09:36:50.772Z,1.92
2023-11-01T09:39:18.908Z,1.95
2023-11-01T09:42:12.812Z,1.83
2023-11-01T09:44:39.408Z,1.83
2023-11-01T09:47:06.233Z,2.03
2023-11-01T09:49:32.666Z,1.90
2023-11-01T09:52:03.552Z,1.92
2023-11-01T09:54:29.884Z,1.52
2023-11-01T09:56:57.606Z,1.33
2023-11-01T09:59:24.901Z,1.65
2023-11-01T10:01:51.394Z,1.58
2023-11-01T10:04:17.949Z,1.80
2023-11-01T10:06:45.278Z,1.50
2023-11-01T10:09:11.814Z,1.95
2023-11-01T10:11:38.137Z,1.40
2023-11-01T10:14:07.257Z,1.70
2023-11-01T10:16:33.799Z,1.77
2023-11-01T10:19:02.403Z,1.98
2023-11-01T10:21:30.762Z,1.38
2023-11-01T10:24:04.521Z,1.65
2023-11-01T10:26:32.235Z,1.75
2023-11-01T10:28:59.851Z,1.73
2023-11-01T10:33:52.987Z,1.42
2023-11-01T10:36:21.829Z,1.70
2023-11-01T10:38:52.441Z,1.70
2023-11-01T10:41:19.539Z,1.48
2023-11-01T10:43:47.574Z,1.30
2023-11-01T10:46:14.482Z,1.13
2023-11-01T10:48:41.276Z,1.75
2023-11-01T10:51:08.252Z,1.40
2023-11-01T10:53:37.171Z,1.65
2023-11-01T10:56:04.766Z,1.60
2023-11-01T11:01:16.975Z,1.45
2023-11-01T11:03:43.809Z,1.58
2023-11-01T11:06:16.315Z,1.23
2023-11-01T11:08:43.015Z,1.55
2023-11-01T11:11:18.909Z,1.70
2023-11-01T11:13:47.628Z,1.92
2023-11-01T11:16:19.448Z,1.55
2023-11-01T11:18:45.898Z,1.48
2023-11-01T11:21:31.631Z,1.50
2023-11-01T11:23:58.558Z,1.63
2023-11-01T11:26:51.133Z,1.58
2023-11-01T11:29:43.610Z,1.70
2023-11-01T11:32:22.497Z,1.80
2023-11-01T11:34:48.900Z,1.58
2023-11-01T11:37:18.073Z,1.20
2023-11-01T11:39:50.938Z,1.60
2023-11-01T11:42:37.939Z,1.67
2023-11-01T11:45:06.350Z,1.70
2023-11-01T11:47:32.912Z,1.60
2023-11-01T11:50:09.162Z,1.50
2023-11-01T11:52:36.750Z,1.27
2023-11-01T11:55:05.204Z,1.52
2023-11-01T11:57:32.152Z,1.40
2023-11-01T12:00:03.162Z,1.40
2023-11-01T12:02:29.688Z,1.58
2023-11-01T12:04:57.626Z,1.63
2023-11-01T12:07:24.814Z,1.42
2023-11-01T12:09:55.382Z,1.65
2023-11-01T12:12:22.709Z,1.50
2023-11-01T12:17:18.241Z,1.30
2023-11-01T12:22:18.335Z,1.45
2023-11-01T12:24:48.359Z,1.20
2023-11-01T12:27:16.088Z,0.98
2023-11-01T12:29:46.492Z,1.40
2023-11-01T12:32:14.569Z,1.67
2023-11-01T12:35:02.578Z,1.52
2023-11-01T12:37:30.488Z,1.60
2023-11-01T12:40:00.124Z,1.30
2023-11-01T12:42:27.445Z,1.10
2023-11-01T12:44:54.601Z,1.35
2023-11-01T12:47:22.168Z,1.20
2023-11-01T12:49:53.204Z,0.68
2023-11-01T12:52:20.474Z,1.27
2023-11-01T12:54:47.120Z,1.35
2023-11-01T12:57:13.895Z,1.40
2023-11-01T12:59:41.393Z,1.45
2023-11-01T13:04:35.107Z,1.25
2023-11-01T13:07:01.915Z,1.42
2023-11-01T13:09:29.488Z,1.40
2023-11-01T13:14:22.383Z,1.33
2023-11-01T13:16:49.076Z,0.68
2023-11-01T13:19:15.640Z,1.23
2023-11-01T13:21:42.205Z,1.40
2023-11-01T13:24:08.967Z,1.30
2023-11-01T13:26:35.465Z,1.25
2023-11-01T13:29:01.877Z,1.40
2023-11-01T13:31:28.771Z,1.30
2023-11-01T13:33:55.373Z,1.27
2023-11-01T13:36:24.193Z,1.70
2023-11-01T13:38:50.666Z,1.90
2023-11-01T13:41:17.412Z,1.30
2023-11-01T13:43:43.904Z,2.78
2023-11-01T13:46:14.243Z,2.03
2023-11-01T13:48:42.010Z,1.92
2023-11-01T13:51:10.262Z,2.22
2023-11-01T13:53:37.499Z,2.40
2023-11-01T13:56:05.340Z,1.73
2023-11-01T13:58:36.783Z,2.10
2023-11-01T14:01:04.631Z,1.27
2023-11-01T14:03:33.499Z,1.23
2023-11-01T14:06:00.083Z,1.40
2023-11-01T14:08:26.791Z,1.40
2023-11-01T14:10:53.384Z,1.75
2023-11-01T14:13:19.968Z,2.03
2023-11-01T14:15:46.831Z,1.67
2023-11-01T14:18:20.057Z,1.42
2023-11-01T14:20:52.640Z,1.40
2023-11-01T14:23:19.530Z,2.10
2023-11-01T14:25:46.408Z,2.05
2023-11-01T14:28:13.986Z,1.92
2023-11-01T14:33:06.837Z,1.40
2023-11-01T14:35:33.218Z,1.60
2023-11-01T14:38:00.414Z,1.80
2023-11-01T14:40:28.475Z,1.70
2023-11-01T14:42:54.784Z,1.48
2023-11-01T14:45:21.690Z,1.65
2023-11-01T14:47:51.389Z,1.52
2023-11-01T14:50:17.857Z,1.35
2023-11-01T14:52:44.287Z,1.60
2023-11-01T14:55:10.777Z,1.73
2023-11-01T14:57:38.363Z,1.60
2023-11-01T15:02:33.697Z,1.42
2023-11-01T15:05:00.069Z,1.50
2023-11-01T15:07:27.369Z,1.42
2023-11-01T15:09:53.751Z,1.48
2023-11-01T15:12:23.604Z,1.30
2023-11-01T15:14:50.374Z,1.15
2023-11-01T15:17:16.720Z,1.20
2023-11-01T15:19:49.465Z,1.60
2023-11-01T15:22:16.795Z,1.23
2023-11-01T15:24:50.283Z,1.35
2023-11-01T15:27:17.588Z,1.25
2023-11-01T15:29:43.994Z,1.35
2023-11-01T15:32:10.562Z,1.33
2023-11-01T15:34:37.618Z,1.30
2023-11-01T15:37:04.258Z,1.48
2023-11-01T15:39:34.111Z,1.40
2023-11-01T15:42:01.816Z,1.63
2023-11-01T15:44:29.173Z,1.80
2023-11-01T15:46:56.518Z,2.45
2023-11-01T15:49:23.765Z,2.58
2023-11-01T15:51:53.846Z,2.10
2023-11-01T15:54:21.612Z,1.63
2023-11-01T15:56:49.527Z,2.00
2023-11-01T15:59:16.286Z,1.67
2023-11-01T16:01:43.304Z,2.35
2023-11-01T16:04:13.265Z,1.67
2023-11-01T16:06:39.645Z,1.98
2023-11-01T16:09:07.161Z,1.85
2023-11-01T16:13:59.678Z,1.95
2023-11-01T16:16:26.274Z,1.60
2023-11-01T16:18:54.384Z,1.77
2023-11-01T16:21:20.613Z,1.80
2023-11-01T16:23:47.184Z,1.70
2023-11-01T16:26:24.453Z,1.60
2023-11-01T16:28:53.476Z,1.58
2023-11-01T16:31:19.958Z,1.58
2023-11-01T16:33:55.620Z,1.20
2023-11-01T16:36:22.024Z,1.48
2023-11-01T16:38:51.700Z,1.65
2023-11-01T16:41:20.685Z,1.50
2023-11-01T16:43:50.695Z,1.50
2023-11-01T16:46:18.091Z,1.73
2023-11-01T16:48:44.600Z,1.60
2023-11-01T16:51:11.570Z,1.40
2023-11-01T16:53:41.301Z,1.42
2023-11-01T16:56:08.012Z,1.58
2023-11-01T16:58:34.488Z,2.03
2023-11-01T17:01:01.081Z,1.17
2023-11-01T17:03:27.640Z,1.73
2023-11-01T17:05:54.600Z,1.70
2023-11-01T17:08:21.985Z,2.20
2023-11-01T17:10:48.512Z,2.10
2023-11-01T17:13:16.096Z,1.75
2023-11-01T17:18:10.072Z,1.90
2023-11-01T17:20:36.715Z,1.38
2023-11-01T17:23:04.841Z,1.80
2023-11-01T17:25:32.490Z,1.60
2023-11-01T17:28:00.163Z,1.88
2023-11-01T17:30:26.486Z,2.17
2023-11-01T17:32:53.522Z,2.00
2023-11-01T17:35:19.940Z,2.38
2023-11-01T17:37:50.737Z,1.60
2023-11-01T17:40:17.817Z,1.80
2023-11-01T17:42:46.953Z,2.08
2023-11-01T17:45:14.032Z,1.90
2023-11-01T17:47:42.222Z,2.20
2023-11-01T17:50:16.220Z,3.13
2023-11-01T17:52:44.080Z,5.93
2023-11-01T17:55:12.991Z,2.00
2023-11-01T17:57:40.902Z,2.20
2023-11-01T18:00:08.429Z,3.00
2023-11-01T18:02:38.710Z,2.95
2023-11-01T18:05:06.124Z,2.50
2023-11-01T18:07:32.579Z,1.80
2023-11-01T18:09:59.002Z,1.80
2023-11-01T18:12:26.261Z,2.00
2023-11-01T18:14:55.357Z,1.73
2023-11-01T18:17:22.833Z,2.00
2023-11-01T18:19:49.422Z,1.98
2023-11-01T18:22:40.816Z,1.60
2023-11-01T18:25:18.329Z,2.10
2023-11-01T18:27:44.754Z,2.45
2023-11-01T18:30:17.544Z,1.58
2023-11-01T18:32:44.351Z,1.58
2023-11-01T18:35:10.993Z,1.35
2023-11-01T18:37:40.131Z,1.23
2023-11-01T18:40:07.383Z,1.65
2023-11-01T18:42:43.683Z,1.27
2023-11-01T18:45:13.852Z,1.55
2023-11-01T18:47:40.314Z,1.60
2023-11-01T18:50:12.330Z,1.70
2023-11-01T18:52:38.727Z,1.70
2023-11-01T18:55:08.660Z,1.30
2023-11-01T18:57:37.406Z,1.20
2023-11-01T19:00:05.270Z,1.10
2023-11-01T19:02:35.292Z,1.35
2023-11-01T19:05:04.734Z,1.17
2023-11-01T19:07:32.591Z,1.10
2023-11-01T19:09:59.008Z,1.40
2023-11-01T19:12:30.305Z,1.30
2023-11-01T19:14:56.877Z,1.13
2023-11-01T19:17:23.851Z,0.90
2023-11-01T19:19:50.735Z,1.33
2023-11-01T19:22:17.279Z,1.50
2023-11-01T19:24:43.580Z,1.60
2023-11-01T19:27:18.103Z,0.95
2023-11-01T19:29:50.164Z,1.20
2023-11-01T19:32:16.682Z,1.23
2023-11-01T19:34:43.055Z,1.20
2023-11-01T19:37:09.451Z,1.25
2023-11-01T19:39:35.788Z,1.00
2023-11-01T19:42:02.241Z,1.10
2023-11-01T19:44:28.597Z,1.13
2023-11-01T19:46:55.569Z,1.30
2023-11-01T19:49:21.939Z,1.00
2023-11-01T19:51:48.355Z,1.15
2023-11-01T19:54:14.711Z,1.20
2023-11-01T19:56:41.161Z,0.95
2023-11-01T19:59:09.152Z,1.30
2023-11-01T20:01:35.534Z,1.02
2023-11-01T20:04:02.669Z,1.00
2023-11-01T20:06:29.176Z,1.13
2023-11-01T20:08:55.723Z,0.93
2023-11-01T20:11:22.334Z,1.00
2023-11-01T20:13:50.468Z,1.30
2023-11-01T20:16:25.152Z,1.20
2023-11-01T20:18:54.799Z,1.20
2023-11-01T20:21:21.442Z,1.10
2023-11-01T20:23:47.857Z,1.27
2023-11-01T20:26:14.470Z,1.20
2023-11-01T20:28:40.742Z,1.15
2023-11-01T20:31:07.051Z,1.00
2023-11-01T20:33:33.528Z,1.65
2023-11-01T20:36:02.381Z,1.67
2023-11-01T20:38:28.729Z,1.63
2023-11-01T20:40:55.045Z,1.00
2023-11-01T20:43:21.611Z,0.63
2023-11-01T20:45:48.648Z,1.00
2023-11-01T20:48:15.158Z,0.95
2023-11-01T20:50:41.521Z,1.30
2023-11-01T20:53:08.070Z,1.10
2023-11-01T20:55:35.168Z,0.95
2023-11-01T20:58:03.702Z,1.20
2023-11-01T21:00:29.931Z,1.20
2023-11-01T21:02:56.429Z,1.08
2023-11-01T21:05:22.898Z,1.30
2023-11-01T21:07:49.853Z,1.35
2023-11-01T21:10:18.415Z,1.15
2023-11-01T21:12:46.602Z,1.15
2023-11-01T21:15:13.143Z,1.50
2023-11-01T21:17:49.095Z,1.30
2023-11-01T21:20:15.403Z,1.10
2023-11-01T21:22:44.361Z,1.20
2023-11-01T21:25:13.980Z,1.30
2023-11-01T21:27:41.689Z,1.50
2023-11-01T21:32:37.454Z,1.02
2023-11-01T21:35:06.151Z,1.10
2023-11-01T21:37:32.431Z,0.65
2023-11-01T21:39:59.057Z,1.10
2023-11-01T21:42:27.835Z,1.25
2023-11-01T21:44:54.420Z,0.80
2023-11-01T21:47:25.866Z,0.93
2023-11-01T21:49:54.623Z,0.90
2023-11-01T21:52:25.534Z,1.00
2023-11-01T21:54:53.876Z,0.50
2023-11-01T21:57:29.124Z,0.93
2023-11-01T22:00:01.150Z,1.25
2023-11-01T22:02:36.372Z,1.20
2023-11-01T22:05:06.579Z,1.00
2023-11-01T22:07:36.281Z,1.38
2023-11-01T22:10:16.621Z,0.98
2023-11-01T22:12:44.651Z,1.40
2023-11-01T22:15:18.946Z,1.05
2023-11-01T22:17:47.344Z,1.10
2023-11-01T22:20:24.159Z,1.08
2023-11-01T22:22:59.847Z,1.58
2023-11-01T22:25:33.741Z,1.40
2023-11-01T22:28:10.170Z,1.35
2023-11-01T22:30:39.170Z,1.20
2023-11-01T22:33:10.604Z,1.05
2023-11-01T22:35:42.350Z,1.08
2023-11-01T22:38:18.731Z,1.25
2023-11-01T22:40:45.160Z,1.15
2023-11-01T22:43:16.365Z,0.85
2023-11-01T22:45:45.303Z,1.33
2023-11-01T22:48:15.343Z,0.85
2023-11-01T22:50:42.972Z,1.20
2023-11-01T22:53:11.400Z,1.20
2023-11-01T22:55:41.669Z,1.25
2023-11-01T22:58:11.573Z,1.15
2023-11-01T23:00:41.295Z,1.00
2023-11-01T23:03:09.255Z,0.88
2023-11-01T23:05:46.408Z,1.40
2023-11-01T23:08:16.196Z,1.10
2023-11-01T23:10:45.111Z,1.40
2023-11-01T23:13:18.390Z,1.10
2023-11-01T23:15:47.349Z,1.30
2023-11-01T23:18:13.686Z,1.60
2023-11-01T23:20:41.738Z,1.10
2023-11-01T23:23:09.361Z,0.60
2023-11-01T23:25:37.072Z,1.30
2023-11-01T23:28:06.286Z,1.20
2023-11-01T23:30:47.930Z,1.00
2023-11-01T23:33:14.477Z,1.40
2023-11-01T23:35:46.854Z,1.50
2023-11-01T23:38:14.166Z,1.40
2023-11-01T23:40:48.264Z,1.60
2023-11-01T23:46:04.528Z,1.13
2023-11-01T23:48:34.345Z,1.50
2023-11-01T23:51:07.734Z,1.70
2023-11-01T23:53:36.496Z,1.17
2023-11-01T23:56:03.566Z,1.38
2023-11-01T23:58:32.100Z,1.30
